sensor_id;sensor_type;location;lat;lon;timestamp;temperature;humidity
20070;DHT22;10195;50.868;4.382;2023-12-07T00:01:03;5.00;99.90
20070;DHT22;10195;50.868;4.382;2023-12-07T00:03:28;5.00;99.90
20070;DHT22;10195;50.868;4.382;2023-12-07T00:05:54;4.90;99.90
20070;DHT22;10195;50.868;4.382;2023-12-07T00:08:19;4.90;99.90
20070;DHT22;10195;50.868;4.382;2023-12-07T00:10:45;4.70;99.90
20070;DHT22;10195;50.868;4.382;2023-12-07T00:13:11;4.40;99.90
20070;DHT22;10195;50.868;4.382;2023-12-07T00:15:36;4.40;99.90
20070;DHT22;10195;50.868;4.382;2023-12-07T00:18:02;4.40;99.90
20070;DHT22;10195;50.868;4.382;2023-12-07T00:20:29;4.60;99.90
20070;DHT22;10195;50.868;4.382;2023-12-07T00:22:54;4.60;99.90
20070;DHT22;10195;50.868;4.382;2023-12-07T00:25:21;4.50;99.90
20070;DHT22;10195;50.868;4.382;2023-12-07T00:27:47;4.40;99.90
20070;DHT22;10195;50.868;4.382;2023-12-07T00:30:13;4.40;99.90
20070;DHT22;10195;50.868;4.382;2023-12-07T00:32:38;4.40;99.90
20070;DHT22;10195;50.868;4.382;2023-12-07T00:35:05;4.50;99.90
20070;DHT22;10195;50.868;4.382;2023-12-07T00:37:33;4.40;99.90
20070;DHT22;10195;50.868;4.382;2023-12-07T00:39:58;4.40;99.90
20070;DHT22;10195;50.868;4.382;2023-12-07T00:42:26;4.50;99.90
20070;DHT22;10195;50.868;4.382;2023-12-07T00:44:51;4.60;99.90
20070;DHT22;10195;50.868;4.382;2023-12-07T00:47:17;4.50;99.90
20070;DHT22;10195;50.868;4.382;2023-12-07T00:49:43;4.50;99.90
20070;DHT22;10195;50.868;4.382;2023-12-07T00:52:09;4.50;99.90
20070;DHT22;10195;50.868;4.382;2023-12-07T00:54:34;4.40;99.90
20070;DHT22;10195;50.868;4.382;2023-12-07T00:57:00;4.40;99.90
20070;DHT22;10195;50.868;4.382;2023-12-07T00:59:26;4.50;99.90
20070;DHT22;10195;50.868;4.382;2023-12-07T01:01:51;4.50;99.90
20070;DHT22;10195;50.868;4.382;2023-12-07T01:04:17;4.50;99.90
20070;DHT22;10195;50.868;4.382;2023-12-07T01:06:43;4.80;99.90
20070;DHT22;10195;50.868;4.382;2023-12-07T01:09:09;4.70;99.90
20070;DHT22;10195;50.868;4.382;2023-12-07T01:11:39;4.70;99.90
20070;DHT22;10195;50.868;4.382;2023-12-07T01:14:08;4.50;99.90
20070;DHT22;10195;50.868;4.382;2023-12-07T01:16:33;4.60;99.90
20070;DHT22;10195;50.868;4.382;2023-12-07T01:18:59;4.70;99.90
20070;DHT22;10195;50.868;4.382;2023-12-07T01:21:24;4.70;99.90
20070;DHT22;10195;50.868;4.382;2023-12-07T01:23:50;4.50;99.90
20070;DHT22;10195;50.868;4.382;2023-12-07T01:26:16;4.40;99.90
20070;DHT22;10195;50.868;4.382;2023-12-07T01:28:42;4.40;99.90
20070;DHT22;10195;50.868;4.382;2023-12-07T01:31:07;4.40;99.90
20070;DHT22;10195;50.868;4.382;2023-12-07T01:33:33;4.30;99.90
20070;DHT22;10195;50.868;4.382;2023-12-07T01:35:58;4.30;99.90
20070;DHT22;10195;50.868;4.382;2023-12-07T01:38:24;4.40;99.90
20070;DHT22;10195;50.868;4.382;2023-12-07T01:40:50;4.50;99.90
20070;DHT22;10195;50.868;4.382;2023-12-07T01:43:15;4.50;99.90
20070;DHT22;10195;50.868;4.382;2023-12-07T01:45:41;4.50;99.90
20070;DHT22;10195;50.868;4.382;2023-12-07T01:48:07;4.50;99.90
20070;DHT22;10195;50.868;4.382;2023-12-07T01:50:33;4.30;99.90
20070;DHT22;10195;50.868;4.382;2023-12-07T01:53:03;4.40;99.90
20070;DHT22;10195;50.868;4.382;2023-12-07T01:55:31;4.20;99.90
20070;DHT22;10195;50.868;4.382;2023-12-07T01:57:57;4.30;99.90
20070;DHT22;10195;50.868;4.382;2023-12-07T02:00:24;4.40;99.90
20070;DHT22;10195;50.868;4.382;2023-12-07T02:02:50;4.40;99.90
20070;DHT22;10195;50.868;4.382;2023-12-07T02:05:17;4.50;99.90
20070;DHT22;10195;50.868;4.382;2023-12-07T02:07:43;4.50;99.90
20070;DHT22;10195;50.868;4.382;2023-12-07T02:10:10;4.40;99.90
20070;DHT22;10195;50.868;4.382;2023-12-07T02:12:36;4.40;99.90
20070;DHT22;10195;50.868;4.382;2023-12-07T02:15:02;4.40;99.90
20070;DHT22;10195;50.868;4.382;2023-12-07T02:20:39;4.20;99.90
20070;DHT22;10195;50.868;4.382;2023-12-07T02:23:08;4.00;99.90
20070;DHT22;10195;50.868;4.382;2023-12-07T02:25:44;3.80;99.90
20070;DHT22;10195;50.868;4.382;2023-12-07T02:28:10;3.80;99.90
20070;DHT22;10195;50.868;4.382;2023-12-07T02:30:36;3.90;99.90
20070;DHT22;10195;50.868;4.382;2023-12-07T02:33:01;3.90;99.90
20070;DHT22;10195;50.868;4.382;2023-12-07T02:35:28;3.90;99.90
20070;DHT22;10195;50.868;4.382;2023-12-07T02:37:54;3.90;99.90
20070;DHT22;10195;50.868;4.382;2023-12-07T02:40:23;3.90;99.90
20070;DHT22;10195;50.868;4.382;2023-12-07T02:42:54;3.90;99.90
20070;DHT22;10195;50.868;4.382;2023-12-07T02:45:20;4.00;99.90
20070;DHT22;10195;50.868;4.382;2023-12-07T02:47:46;4.10;99.90
20070;DHT22;10195;50.868;4.382;2023-12-07T02:50:12;4.10;99.90
20070;DHT22;10195;50.868;4.382;2023-12-07T02:52:38;4.20;99.90
20070;DHT22;10195;50.868;4.382;2023-12-07T02:55:04;4.20;99.90
20070;DHT22;10195;50.868;4.382;2023-12-07T02:57:30;4.20;99.90
20070;DHT22;10195;50.868;4.382;2023-12-07T02:59:56;4.30;99.90
20070;DHT22;10195;50.868;4.382;2023-12-07T03:02:22;4.30;99.90
20070;DHT22;10195;50.868;4.382;2023-12-07T03:04:48;4.30;99.90
20070;DHT22;10195;50.868;4.382;2023-12-07T03:07:13;4.40;99.90
20070;DHT22;10195;50.868;4.382;2023-12-07T03:09:39;4.50;99.90
20070;DHT22;10195;50.868;4.382;2023-12-07T03:12:05;4.60;99.90
20070;DHT22;10195;50.868;4.382;2023-12-07T03:14:31;4.50;99.90
20070;DHT22;10195;50.868;4.382;2023-12-07T03:16:57;4.50;99.90
20070;DHT22;10195;50.868;4.382;2023-12-07T03:19:23;4.50;99.90
20070;DHT22;10195;50.868;4.382;2023-12-07T03:21:48;4.60;99.90
20070;DHT22;10195;50.868;4.382;2023-12-07T03:24:14;4.60;99.90
20070;DHT22;10195;50.868;4.382;2023-12-07T03:26:40;4.60;99.90
20070;DHT22;10195;50.868;4.382;2023-12-07T03:29:06;4.60;99.90
20070;DHT22;10195;50.868;4.382;2023-12-07T03:31:32;4.70;99.90
20070;DHT22;10195;50.868;4.382;2023-12-07T03:33:58;4.80;99.90
20070;DHT22;10195;50.868;4.382;2023-12-07T03:36:24;4.60;99.90
20070;DHT22;10195;50.868;4.382;2023-12-07T03:38:50;4.60;99.90
20070;DHT22;10195;50.868;4.382;2023-12-07T03:41:16;4.50;99.90
20070;DHT22;10195;50.868;4.382;2023-12-07T03:43:41;4.40;99.90
20070;DHT22;10195;50.868;4.382;2023-12-07T03:46:07;4.40;99.90
20070;DHT22;10195;50.868;4.382;2023-12-07T03:48:34;4.50;99.90
20070;DHT22;10195;50.868;4.382;2023-12-07T03:51:00;4.30;99.90
20070;DHT22;10195;50.868;4.382;2023-12-07T03:53:26;4.30;99.90
20070;DHT22;10195;50.868;4.382;2023-12-07T03:55:52;4.30;99.90
20070;DHT22;10195;50.868;4.382;2023-12-07T03:58:17;4.30;99.90
20070;DHT22;10195;50.868;4.382;2023-12-07T04:00:44;4.30;99.90
20070;DHT22;10195;50.868;4.382;2023-12-07T04:03:10;4.60;99.90
20070;DHT22;10195;50.868;4.382;2023-12-07T04:05:35;4.50;99.90
20070;DHT22;10195;50.868;4.382;2023-12-07T04:08:01;4.40;99.90
20070;DHT22;10195;50.868;4.382;2023-12-07T04:10:27;4.50;99.90
20070;DHT22;10195;50.868;4.382;2023-12-07T04:12:52;4.60;99.90
20070;DHT22;10195;50.868;4.382;2023-12-07T04:15:19;4.70;99.90
20070;DHT22;10195;50.868;4.382;2023-12-07T04:17:45;4.60;99.90
20070;DHT22;10195;50.868;4.382;2023-12-07T04:20:11;4.60;99.90
20070;DHT22;10195;50.868;4.382;2023-12-07T04:22:38;4.60;99.90
20070;DHT22;10195;50.868;4.382;2023-12-07T04:25:04;4.50;99.90
20070;DHT22;10195;50.868;4.382;2023-12-07T04:27:31;4.60;99.90
20070;DHT22;10195;50.868;4.382;2023-12-07T04:29:56;4.40;99.90
20070;DHT22;10195;50.868;4.382;2023-12-07T04:32:22;4.20;99.90
20070;DHT22;10195;50.868;4.382;2023-12-07T04:34:48;4.20;99.90
20070;DHT22;10195;50.868;4.382;2023-12-07T04:37:13;4.10;99.90
20070;DHT22;10195;50.868;4.382;2023-12-07T04:39:39;4.20;99.90
20070;DHT22;10195;50.868;4.382;2023-12-07T04:42:05;4.30;99.90
20070;DHT22;10195;50.868;4.382;2023-12-07T04:44:30;4.30;99.90
20070;DHT22;10195;50.868;4.382;2023-12-07T04:46:56;4.30;99.90
20070;DHT22;10195;50.868;4.382;2023-12-07T04:49:22;4.10;99.90
20070;DHT22;10195;50.868;4.382;2023-12-07T04:51:47;4.00;99.90
20070;DHT22;10195;50.868;4.382;2023-12-07T04:54:13;4.00;99.90
20070;DHT22;10195;50.868;4.382;2023-12-07T04:56:43;3.90;99.90
20070;DHT22;10195;50.868;4.382;2023-12-07T04:59:09;4.00;99.90
20070;DHT22;10195;50.868;4.382;2023-12-07T05:01:36;4.00;99.90
20070;DHT22;10195;50.868;4.382;2023-12-07T05:04:05;4.20;99.90
20070;DHT22;10195;50.868;4.382;2023-12-07T05:06:31;4.00;99.90
20070;DHT22;10195;50.868;4.382;2023-12-07T05:08:57;4.00;99.90
20070;DHT22;10195;50.868;4.382;2023-12-07T05:11:23;4.10;99.90
20070;DHT22;10195;50.868;4.382;2023-12-07T05:13:49;3.90;99.90
20070;DHT22;10195;50.868;4.382;2023-12-07T05:16:14;3.70;99.90
20070;DHT22;10195;50.868;4.382;2023-12-07T05:18:40;3.70;99.90
20070;DHT22;10195;50.868;4.382;2023-12-07T05:21:06;3.70;99.90
20070;DHT22;10195;50.868;4.382;2023-12-07T05:23:33;3.80;99.90
20070;DHT22;10195;50.868;4.382;2023-12-07T05:25:59;3.80;99.90
20070;DHT22;10195;50.868;4.382;2023-12-07T05:28:25;3.80;99.90
20070;DHT22;10195;50.868;4.382;2023-12-07T05:30:51;3.80;99.90
20070;DHT22;10195;50.868;4.382;2023-12-07T05:33:18;4.00;99.90
20070;DHT22;10195;50.868;4.382;2023-12-07T05:35:47;4.20;99.90
20070;DHT22;10195;50.868;4.382;2023-12-07T05:38:13;4.10;99.90
20070;DHT22;10195;50.868;4.382;2023-12-07T05:40:39;4.20;99.90
20070;DHT22;10195;50.868;4.382;2023-12-07T05:43:04;4.20;99.90
20070;DHT22;10195;50.868;4.382;2023-12-07T05:45:30;4.10;99.90
20070;DHT22;10195;50.868;4.382;2023-12-07T05:47:56;4.10;99.90
20070;DHT22;10195;50.868;4.382;2023-12-07T05:50:22;4.00;99.90
20070;DHT22;10195;50.868;4.382;2023-12-07T05:52:50;4.00;99.90
20070;DHT22;10195;50.868;4.382;2023-12-07T05:55:16;3.90;99.90
20070;DHT22;10195;50.868;4.382;2023-12-07T05:57:44;3.90;99.90
20070;DHT22;10195;50.868;4.382;2023-12-07T06:00:10;4.00;99.90
20070;DHT22;10195;50.868;4.382;2023-12-07T06:02:36;4.00;99.90
20070;DHT22;10195;50.868;4.382;2023-12-07T06:05:05;4.00;99.90
20070;DHT22;10195;50.868;4.382;2023-12-07T06:07:31;4.00;99.90
20070;DHT22;10195;50.868;4.382;2023-12-07T06:09:56;3.90;99.90
20070;DHT22;10195;50.868;4.382;2023-12-07T06:12:22;3.90;99.90
20070;DHT22;10195;50.868;4.382;2023-12-07T06:14:48;4.00;99.90
20070;DHT22;10195;50.868;4.382;2023-12-07T06:17:14;4.00;99.90
20070;DHT22;10195;50.868;4.382;2023-12-07T06:19:40;4.00;99.90
20070;DHT22;10195;50.868;4.382;2023-12-07T06:22:05;4.00;99.90
20070;DHT22;10195;50.868;4.382;2023-12-07T06:24:31;4.10;99.90
20070;DHT22;10195;50.868;4.382;2023-12-07T06:26:58;4.10;99.90
20070;DHT22;10195;50.868;4.382;2023-12-07T06:29:24;4.10;99.90
20070;DHT22;10195;50.868;4.382;2023-12-07T06:31:50;4.10;99.90
20070;DHT22;10195;50.868;4.382;2023-12-07T06:34:16;4.10;99.90
20070;DHT22;10195;50.868;4.382;2023-12-07T06:36:42;4.10;99.90
20070;DHT22;10195;50.868;4.382;2023-12-07T06:39:08;4.00;99.90
20070;DHT22;10195;50.868;4.382;2023-12-07T06:41:34;4.00;99.90
20070;DHT22;10195;50.868;4.382;2023-12-07T06:44:00;4.10;99.90
20070;DHT22;10195;50.868;4.382;2023-12-07T06:46:25;4.00;99.90
20070;DHT22;10195;50.868;4.382;2023-12-07T06:48:51;4.00;99.90
20070;DHT22;10195;50.868;4.382;2023-12-07T06:51:17;4.00;99.90
20070;DHT22;10195;50.868;4.382;2023-12-07T06:53:42;4.10;99.90
20070;DHT22;10195;50.868;4.382;2023-12-07T06:56:08;4.10;99.90
20070;DHT22;10195;50.868;4.382;2023-12-07T06:58:34;4.00;99.90
20070;DHT22;10195;50.868;4.382;2023-12-07T07:01:00;4.00;99.90
20070;DHT22;10195;50.868;4.382;2023-12-07T07:03:26;4.00;99.90
20070;DHT22;10195;50.868;4.382;2023-12-07T07:05:56;4.10;99.90
20070;DHT22;10195;50.868;4.382;2023-12-07T07:08:21;4.10;99.90
20070;DHT22;10195;50.868;4.382;2023-12-07T07:10:47;4.20;99.90
20070;DHT22;10195;50.868;4.382;2023-12-07T07:13:13;4.30;99.90
20070;DHT22;10195;50.868;4.382;2023-12-07T07:15:42;4.20;99.90
20070;DHT22;10195;50.868;4.382;2023-12-07T07:18:09;4.00;99.90
20070;DHT22;10195;50.868;4.382;2023-12-07T07:20:34;4.00;99.90
20070;DHT22;10195;50.868;4.382;2023-12-07T07:23:00;4.00;99.90
20070;DHT22;10195;50.868;4.382;2023-12-07T07:25:25;4.00;99.90
20070;DHT22;10195;50.868;4.382;2023-12-07T07:27:52;4.00;99.90
20070;DHT22;10195;50.868;4.382;2023-12-07T07:30:20;4.00;99.90
20070;DHT22;10195;50.868;4.382;2023-12-07T07:32:46;4.10;99.90
20070;DHT22;10195;50.868;4.382;2023-12-07T07:35:11;4.10;99.90
20070;DHT22;10195;50.868;4.382;2023-12-07T07:37:40;4.00;99.90
20070;DHT22;10195;50.868;4.382;2023-12-07T07:40:07;4.00;99.90
20070;DHT22;10195;50.868;4.382;2023-12-07T07:42:37;4.10;99.90
20070;DHT22;10195;50.868;4.382;2023-12-07T07:45:04;4.10;99.90
20070;DHT22;10195;50.868;4.382;2023-12-07T07:47:30;4.10;99.90
20070;DHT22;10195;50.868;4.382;2023-12-07T07:49:56;4.10;99.90
20070;DHT22;10195;50.868;4.382;2023-12-07T07:52:23;4.10;99.90
20070;DHT22;10195;50.868;4.382;2023-12-07T07:54:49;4.30;99.90
20070;DHT22;10195;50.868;4.382;2023-12-07T07:57:15;4.10;99.90
20070;DHT22;10195;50.868;4.382;2023-12-07T07:59:40;4.10;99.90
20070;DHT22;10195;50.868;4.382;2023-12-07T08:02:06;4.30;99.90
20070;DHT22;10195;50.868;4.382;2023-12-07T08:04:32;4.30;99.90
20070;DHT22;10195;50.868;4.382;2023-12-07T08:07:00;4.20;99.90
20070;DHT22;10195;50.868;4.382;2023-12-07T08:09:26;4.10;99.90
20070;DHT22;10195;50.868;4.382;2023-12-07T08:11:52;4.10;99.90
20070;DHT22;10195;50.868;4.382;2023-12-07T08:14:17;4.00;99.90
20070;DHT22;10195;50.868;4.382;2023-12-07T08:16:44;4.00;99.90
20070;DHT22;10195;50.868;4.382;2023-12-07T08:19:12;4.00;99.90
20070;DHT22;10195;50.868;4.382;2023-12-07T08:21:38;4.10;99.90
20070;DHT22;10195;50.868;4.382;2023-12-07T08:24:04;4.20;99.90
20070;DHT22;10195;50.868;4.382;2023-12-07T08:26:31;4.30;99.90
20070;DHT22;10195;50.868;4.382;2023-12-07T08:28:57;4.20;99.90
20070;DHT22;10195;50.868;4.382;2023-12-07T08:31:23;4.30;99.90
20070;DHT22;10195;50.868;4.382;2023-12-07T08:33:52;4.40;99.90
20070;DHT22;10195;50.868;4.382;2023-12-07T08:36:17;4.50;99.90
20070;DHT22;10195;50.868;4.382;2023-12-07T08:38:43;4.60;99.90
20070;DHT22;10195;50.868;4.382;2023-12-07T08:41:09;4.80;99.90
20070;DHT22;10195;50.868;4.382;2023-12-07T08:43:34;4.80;99.90
20070;DHT22;10195;50.868;4.382;2023-12-07T08:46:00;4.80;99.90
20070;DHT22;10195;50.868;4.382;2023-12-07T08:48:26;4.80;99.90
20070;DHT22;10195;50.868;4.382;2023-12-07T08:50:51;4.70;99.90
20070;DHT22;10195;50.868;4.382;2023-12-07T08:53:17;4.80;99.90
20070;DHT22;10195;50.868;4.382;2023-12-07T08:55:43;4.80;99.90
20070;DHT22;10195;50.868;4.382;2023-12-07T08:58:09;4.70;99.90
20070;DHT22;10195;50.868;4.382;2023-12-07T09:00:36;4.80;99.90
20070;DHT22;10195;50.868;4.382;2023-12-07T09:03:01;4.70;99.90
20070;DHT22;10195;50.868;4.382;2023-12-07T09:05:27;4.70;99.90
20070;DHT22;10195;50.868;4.382;2023-12-07T09:07:53;4.70;99.90
20070;DHT22;10195;50.868;4.382;2023-12-07T09:10:19;4.70;99.90
20070;DHT22;10195;50.868;4.382;2023-12-07T09:12:45;4.70;99.90
20070;DHT22;10195;50.868;4.382;2023-12-07T09:15:11;4.80;99.90
20070;DHT22;10195;50.868;4.382;2023-12-07T09:17:38;4.80;99.90
20070;DHT22;10195;50.868;4.382;2023-12-07T09:20:07;5.00;99.90
20070;DHT22;10195;50.868;4.382;2023-12-07T09:22:39;4.90;99.90
20070;DHT22;10195;50.868;4.382;2023-12-07T09:25:05;5.00;99.90
20070;DHT22;10195;50.868;4.382;2023-12-07T09:27:32;5.10;99.90
20070;DHT22;10195;50.868;4.382;2023-12-07T09:29:58;5.20;99.90
20070;DHT22;10195;50.868;4.382;2023-12-07T09:32:24;5.20;99.90
20070;DHT22;10195;50.868;4.382;2023-12-07T09:34:49;5.20;99.90
20070;DHT22;10195;50.868;4.382;2023-12-07T09:37:16;5.30;99.90
20070;DHT22;10195;50.868;4.382;2023-12-07T09:39:42;5.30;99.90
20070;DHT22;10195;50.868;4.382;2023-12-07T09:42:08;5.70;99.90
20070;DHT22;10195;50.868;4.382;2023-12-07T09:44:33;5.70;99.90
20070;DHT22;10195;50.868;4.382;2023-12-07T09:46:59;6.10;99.90
20070;DHT22;10195;50.868;4.382;2023-12-07T09:49:25;6.30;99.90
20070;DHT22;10195;50.868;4.382;2023-12-07T09:51:51;6.40;99.90
20070;DHT22;10195;50.868;4.382;2023-12-07T09:54:18;7.00;99.90
20070;DHT22;10195;50.868;4.382;2023-12-07T09:56:44;7.10;99.90
20070;DHT22;10195;50.868;4.382;2023-12-07T09:59:10;7.20;99.90
20070;DHT22;10195;50.868;4.382;2023-12-07T10:01:35;7.50;99.90
20070;DHT22;10195;50.868;4.382;2023-12-07T10:04:21;7.50;99.90
20070;DHT22;10195;50.868;4.382;2023-12-07T10:06:52;7.50;99.90
20070;DHT22;10195;50.868;4.382;2023-12-07T10:09:18;7.80;99.90
20070;DHT22;10195;50.868;4.382;2023-12-07T10:11:47;7.40;99.90
20070;DHT22;10195;50.868;4.382;2023-12-07T10:14:13;7.20;99.90
20070;DHT22;10195;50.868;4.382;2023-12-07T10:16:53;7.00;99.90
20070;DHT22;10195;50.868;4.382;2023-12-07T10:19:22;6.50;99.90
20070;DHT22;10195;50.868;4.382;2023-12-07T10:21:48;6.50;99.90
20070;DHT22;10195;50.868;4.382;2023-12-07T10:24:22;6.40;99.90
20070;DHT22;10195;50.868;4.382;2023-12-07T10:26:49;6.40;99.90
20070;DHT22;10195;50.868;4.382;2023-12-07T10:29:17;6.50;99.90
20070;DHT22;10195;50.868;4.382;2023-12-07T10:31:44;6.60;99.90
20070;DHT22;10195;50.868;4.382;2023-12-07T10:34:09;6.90;99.90
20070;DHT22;10195;50.868;4.382;2023-12-07T10:36:35;7.20;99.90
20070;DHT22;10195;50.868;4.382;2023-12-07T10:39:01;7.60;99.90
20070;DHT22;10195;50.868;4.382;2023-12-07T10:41:32;7.90;99.90
20070;DHT22;10195;50.868;4.382;2023-12-07T10:44:00;7.90;99.90
20070;DHT22;10195;50.868;4.382;2023-12-07T10:46:27;7.90;99.90
20070;DHT22;10195;50.868;4.382;2023-12-07T10:49:00;8.10;99.90
20070;DHT22;10195;50.868;4.382;2023-12-07T10:51:31;7.80;99.90
20070;DHT22;10195;50.868;4.382;2023-12-07T10:53:57;7.40;99.90
20070;DHT22;10195;50.868;4.382;2023-12-07T10:56:39;7.00;99.90
20070;DHT22;10195;50.868;4.382;2023-12-07T10:59:09;6.80;99.90
20070;DHT22;10195;50.868;4.382;2023-12-07T11:01:41;6.70;99.90
20070;DHT22;10195;50.868;4.382;2023-12-07T11:04:14;6.80;99.90
20070;DHT22;10195;50.868;4.382;2023-12-07T11:06:40;7.00;99.90
20070;DHT22;10195;50.868;4.382;2023-12-07T11:09:09;7.10;99.90
20070;DHT22;10195;50.868;4.382;2023-12-07T11:11:48;7.00;99.90
20070;DHT22;10195;50.868;4.382;2023-12-07T11:14:16;6.90;99.90
20070;DHT22;10195;50.868;4.382;2023-12-07T11:16:45;7.10;99.90
20070;DHT22;10195;50.868;4.382;2023-12-07T11:22:06;7.20;99.90
20070;DHT22;10195;50.868;4.382;2023-12-07T11:24:33;7.00;99.90
20070;DHT22;10195;50.868;4.382;2023-12-07T11:26:58;6.90;99.90
20070;DHT22;10195;50.868;4.382;2023-12-07T11:29:25;6.90;99.90
20070;DHT22;10195;50.868;4.382;2023-12-07T11:31:51;7.00;99.90
20070;DHT22;10195;50.868;4.382;2023-12-07T11:34:40;6.80;99.90
20070;DHT22;10195;50.868;4.382;2023-12-07T11:37:06;6.90;99.90
20070;DHT22;10195;50.868;4.382;2023-12-07T11:39:37;7.00;99.90
20070;DHT22;10195;50.868;4.382;2023-12-07T11:42:07;7.20;99.90
20070;DHT22;10195;50.868;4.382;2023-12-07T11:44:34;7.40;99.90
20070;DHT22;10195;50.868;4.382;2023-12-07T11:47:03;7.20;99.90
20070;DHT22;10195;50.868;4.382;2023-12-07T11:49:29;7.10;99.90
20070;DHT22;10195;50.868;4.382;2023-12-07T11:51:56;7.10;99.90
20070;DHT22;10195;50.868;4.382;2023-12-07T11:54:27;7.10;99.90
20070;DHT22;10195;50.868;4.382;2023-12-07T11:56:54;6.90;99.90
20070;DHT22;10195;50.868;4.382;2023-12-07T11:59:20;6.90;99.90
20070;DHT22;10195;50.868;4.382;2023-12-07T12:01:47;6.90;99.90
20070;DHT22;10195;50.868;4.382;2023-12-07T12:04:14;7.00;99.90
20070;DHT22;10195;50.868;4.382;2023-12-07T12:06:40;7.00;99.90
20070;DHT22;10195;50.868;4.382;2023-12-07T12:09:08;6.90;99.90
20070;DHT22;10195;50.868;4.382;2023-12-07T12:11:35;6.90;99.90
20070;DHT22;10195;50.868;4.382;2023-12-07T12:14:01;7.00;99.90
20070;DHT22;10195;50.868;4.382;2023-12-07T12:16:27;6.80;99.90
20070;DHT22;10195;50.868;4.382;2023-12-07T12:18:53;6.80;99.90
20070;DHT22;10195;50.868;4.382;2023-12-07T12:21:20;6.70;99.90
20070;DHT22;10195;50.868;4.382;2023-12-07T12:23:48;6.70;99.90
20070;DHT22;10195;50.868;4.382;2023-12-07T12:26:13;6.80;99.90
20070;DHT22;10195;50.868;4.382;2023-12-07T12:28:39;6.60;99.90
20070;DHT22;10195;50.868;4.382;2023-12-07T12:31:09;6.60;99.90
20070;DHT22;10195;50.868;4.382;2023-12-07T12:33:37;6.60;99.90
20070;DHT22;10195;50.868;4.382;2023-12-07T12:36:05;6.60;99.90
20070;DHT22;10195;50.868;4.382;2023-12-07T12:38:33;6.70;99.90
20070;DHT22;10195;50.868;4.382;2023-12-07T12:40:58;6.60;99.90
20070;DHT22;10195;50.868;4.382;2023-12-07T12:43:24;6.60;99.90
20070;DHT22;10195;50.868;4.382;2023-12-07T12:45:50;6.40;99.90
20070;DHT22;10195;50.868;4.382;2023-12-07T12:48:16;6.30;99.90
20070;DHT22;10195;50.868;4.382;2023-12-07T12:50:42;6.50;99.90
20070;DHT22;10195;50.868;4.382;2023-12-07T12:53:09;6.60;99.90
20070;DHT22;10195;50.868;4.382;2023-12-07T12:55:37;6.50;99.90
20070;DHT22;10195;50.868;4.382;2023-12-07T12:58:05;6.40;99.90
20070;DHT22;10195;50.868;4.382;2023-12-07T13:00:31;6.50;99.90
20070;DHT22;10195;50.868;4.382;2023-12-07T13:03:03;6.50;99.90
20070;DHT22;10195;50.868;4.382;2023-12-07T13:05:30;6.60;99.90
20070;DHT22;10195;50.868;4.382;2023-12-07T13:07:55;6.50;99.90
20070;DHT22;10195;50.868;4.382;2023-12-07T13:10:24;6.50;99.90
20070;DHT22;10195;50.868;4.382;2023-12-07T13:12:50;6.50;99.90
20070;DHT22;10195;50.868;4.382;2023-12-07T13:15:15;6.60;99.90
20070;DHT22;10195;50.868;4.382;2023-12-07T13:17:43;6.70;99.90
20070;DHT22;10195;50.868;4.382;2023-12-07T13:20:09;6.70;99.90
20070;DHT22;10195;50.868;4.382;2023-12-07T13:22:40;6.70;99.90
20070;DHT22;10195;50.868;4.382;2023-12-07T13:25:07;6.70;99.90
20070;DHT22;10195;50.868;4.382;2023-12-07T13:27:34;6.70;99.90
20070;DHT22;10195;50.868;4.382;2023-12-07T13:30:00;6.60;99.90
20070;DHT22;10195;50.868;4.382;2023-12-07T13:32:26;6.60;99.90
20070;DHT22;10195;50.868;4.382;2023-12-07T13:34:51;6.60;99.90
20070;DHT22;10195;50.868;4.382;2023-12-07T13:37:17;6.60;99.90
20070;DHT22;10195;50.868;4.382;2023-12-07T13:39:43;6.50;99.90
20070;DHT22;10195;50.868;4.382;2023-12-07T13:42:09;6.50;99.90
20070;DHT22;10195;50.868;4.382;2023-12-07T13:44:35;6.60;99.90
20070;DHT22;10195;50.868;4.382;2023-12-07T13:47:01;6.60;99.90
20070;DHT22;10195;50.868;4.382;2023-12-07T13:49:27;6.60;99.90
20070;DHT22;10195;50.868;4.382;2023-12-07T13:51:53;6.70;99.90
20070;DHT22;10195;50.868;4.382;2023-12-07T13:54:18;6.50;99.90
20070;DHT22;10195;50.868;4.382;2023-12-07T13:56:44;6.50;99.90
20070;DHT22;10195;50.868;4.382;2023-12-07T13:59:10;6.40;99.90
20070;DHT22;10195;50.868;4.382;2023-12-07T14:01:37;6.40;99.90
20070;DHT22;10195;50.868;4.382;2023-12-07T14:04:05;6.40;99.90
20070;DHT22;10195;50.868;4.382;2023-12-07T14:06:31;6.30;99.90
20070;DHT22;10195;50.868;4.382;2023-12-07T14:09:01;6.20;99.90
20070;DHT22;10195;50.868;4.382;2023-12-07T14:11:26;6.30;99.90
20070;DHT22;10195;50.868;4.382;2023-12-07T14:13:52;6.30;99.90
20070;DHT22;10195;50.868;4.382;2023-12-07T14:16:20;6.30;99.90
20070;DHT22;10195;50.868;4.382;2023-12-07T14:18:46;6.30;99.90
20070;DHT22;10195;50.868;4.382;2023-12-07T14:21:12;6.30;99.90
20070;DHT22;10195;50.868;4.382;2023-12-07T14:23:39;6.20;99.90
20070;DHT22;10195;50.868;4.382;2023-12-07T14:26:05;6.30;99.90
20070;DHT22;10195;50.868;4.382;2023-12-07T14:28:33;6.20;99.90
20070;DHT22;10195;50.868;4.382;2023-12-07T14:31:00;6.30;99.90
20070;DHT22;10195;50.868;4.382;2023-12-07T14:33:26;6.30;99.90
20070;DHT22;10195;50.868;4.382;2023-12-07T14:35:51;6.30;99.90
20070;DHT22;10195;50.868;4.382;2023-12-07T14:38:17;6.30;99.90
20070;DHT22;10195;50.868;4.382;2023-12-07T14:40:43;6.20;99.90
20070;DHT22;10195;50.868;4.382;2023-12-07T14:43:09;6.10;99.90
20070;DHT22;10195;50.868;4.382;2023-12-07T14:45:34;6.10;99.90
20070;DHT22;10195;50.868;4.382;2023-12-07T14:48:00;6.20;99.90
20070;DHT22;10195;50.868;4.382;2023-12-07T14:50:26;6.10;99.90
20070;DHT22;10195;50.868;4.382;2023-12-07T14:52:51;6.10;99.90
20070;DHT22;10195;50.868;4.382;2023-12-07T14:55:17;6.00;99.90
20070;DHT22;10195;50.868;4.382;2023-12-07T14:57:44;6.00;99.90
20070;DHT22;10195;50.868;4.382;2023-12-07T15:00:10;6.00;99.90
20070;DHT22;10195;50.868;4.382;2023-12-07T15:02:36;6.00;99.90
20070;DHT22;10195;50.868;4.382;2023-12-07T15:05:02;6.00;99.90
20070;DHT22;10195;50.868;4.382;2023-12-07T15:07:27;6.10;99.90
20070;DHT22;10195;50.868;4.382;2023-12-07T15:09:53;6.10;99.90
20070;DHT22;10195;50.868;4.382;2023-12-07T15:12:19;6.10;99.90
20070;DHT22;10195;50.868;4.382;2023-12-07T15:14:45;6.20;99.90
20070;DHT22;10195;50.868;4.382;2023-12-07T15:17:11;6.10;99.90
20070;DHT22;10195;50.868;4.382;2023-12-07T15:19:40;6.20;99.90
20070;DHT22;10195;50.868;4.382;2023-12-07T15:22:05;6.20;99.90
20070;DHT22;10195;50.868;4.382;2023-12-07T15:24:33;6.20;99.90
20070;DHT22;10195;50.868;4.382;2023-12-07T15:26:59;6.20;99.90
20070;DHT22;10195;50.868;4.382;2023-12-07T15:29:26;6.20;99.90
20070;DHT22;10195;50.868;4.382;2023-12-07T15:31:51;6.00;99.90
20070;DHT22;10195;50.868;4.382;2023-12-07T15:34:17;5.90;99.90
20070;DHT22;10195;50.868;4.382;2023-12-07T15:36:43;6.00;99.90
20070;DHT22;10195;50.868;4.382;2023-12-07T15:39:08;6.00;99.90
20070;DHT22;10195;50.868;4.382;2023-12-07T15:41:37;6.10;99.90
20070;DHT22;10195;50.868;4.382;2023-12-07T15:44:02;6.10;99.90
20070;DHT22;10195;50.868;4.382;2023-12-07T15:46:28;6.10;99.90